sensor_id;sensor_type;location;lat;lon;timestamp;pressure;altitude;pressure_sealevel;temperature;humidity
60170;BME280;46042;49.444;6.862;2024-02-23T00:01:44;96552.84;;;3.54;100.00
60170;BME280;46042;49.444;6.862;2024-02-23T00:04:11;96550.53;;;3.49;100.00
60170;BME280;46042;49.444;6.862;2024-02-23T00:06:38;96564.59;;;3.47;100.00
60170;BME280;46042;49.444;6.862;2024-02-23T00:09:08;96571.91;;;3.41;100.00
60170;BME280;46042;49.444;6.862;2024-02-23T00:11:35;96574.72;;;3.38;100.00
60170;BME280;46042;49.444;6.862;2024-02-23T00:14:11;96590.94;;;3.42;100.00
60170;BME280;46042;49.444;6.862;2024-02-23T00:16:40;96610.19;;;3.52;100.00
60170;BME280;46042;49.444;6.862;2024-02-23T00:19:10;96604.09;;;3.40;100.00
60170;BME280;46042;49.444;6.862;2024-02-23T00:21:38;96601.34;;;3.42;100.00
60170;BME280;46042;49.444;6.862;2024-02-23T00:24:15;96616.06;;;3.43;100.00
60170;BME280;46042;49.444;6.862;2024-02-23T00:26:43;96597.41;;;3.49;100.00
60170;BME280;46042;49.444;6.862;2024-02-23T00:29:11;96601.56;;;3.39;100.00
60170;BME280;46042;49.444;6.862;2024-02-23T00:31:38;96600.31;;;3.45;100.00
60170;BME280;46042;49.444;6.862;2024-02-23T00:34:07;96600.75;;;3.38;100.00
60170;BME280;46042;49.444;6.862;2024-02-23T00:36:42;96617.19;;;3.39;100.00
60170;BME280;46042;49.444;6.862;2024-02-23T00:39:14;96622.13;;;3.31;100.00
60170;BME280;46042;49.444;6.862;2024-02-23T00:41:41;96626.91;;;3.24;100.00
60170;BME280;46042;49.444;6.862;2024-02-23T00:44:08;96636.81;;;3.19;100.00
60170;BME280;46042;49.444;6.862;2024-02-23T00:46:35;96637.50;;;3.08;100.00
60170;BME280;46042;49.444;6.862;2024-02-23T00:49:01;96637.72;;;3.05;100.00
60170;BME280;46042;49.444;6.862;2024-02-23T00:51:29;96647.31;;;3.17;100.00
60170;BME280;46042;49.444;6.862;2024-02-23T00:53:56;96648.25;;;3.16;100.00
60170;BME280;46042;49.444;6.862;2024-02-23T00:56:23;96653.53;;;3.15;100.00
60170;BME280;46042;49.444;6.862;2024-02-23T00:59:01;96644.41;;;3.22;100.00
60170;BME280;46042;49.444;6.862;2024-02-23T01:01:28;96655.84;;;3.19;100.00
60170;BME280;46042;49.444;6.862;2024-02-23T01:03:55;96655.31;;;3.14;100.00
60170;BME280;46042;49.444;6.862;2024-02-23T01:06:30;96660.53;;;3.14;100.00
60170;BME280;46042;49.444;6.862;2024-02-23T01:09:05;96652.81;;;3.12;100.00
60170;BME280;46042;49.444;6.862;2024-02-23T01:11:32;96659.69;;;3.13;100.00
60170;BME280;46042;49.444;6.862;2024-02-23T01:13:59;96670.28;;;3.10;100.00
60170;BME280;46042;49.444;6.862;2024-02-23T01:16:26;96669.66;;;3.07;100.00
60170;BME280;46042;49.444;6.862;2024-02-23T01:18:55;96673.94;;;3.08;100.00
60170;BME280;46042;49.444;6.862;2024-02-23T01:21:26;96674.34;;;3.02;100.00
60170;BME280;46042;49.444;6.862;2024-02-23T01:23:59;96674.13;;;3.05;100.00
60170;BME280;46042;49.444;6.862;2024-02-23T01:26:27;96683.22;;;3.12;100.00
60170;BME280;46042;49.444;6.862;2024-02-23T01:28:54;96684.47;;;3.06;100.00
60170;BME280;46042;49.444;6.862;2024-02-23T01:31:21;96677.69;;;3.04;100.00
60170;BME280;46042;49.444;6.862;2024-02-23T01:33:48;96679.75;;;3.11;100.00
60170;BME280;46042;49.444;6.862;2024-02-23T01:36:16;96691.22;;;3.09;100.00
60170;BME280;46042;49.444;6.862;2024-02-23T01:38:50;96686.53;;;3.14;100.00
60170;BME280;46042;49.444;6.862;2024-02-23T01:41:22;96697.75;;;3.15;100.00
60170;BME280;46042;49.444;6.862;2024-02-23T01:43:50;96702.03;;;3.16;100.00
60170;BME280;46042;49.444;6.862;2024-02-23T01:46:22;96702.88;;;3.16;100.00
60170;BME280;46042;49.444;6.862;2024-02-23T01:48:49;96704.53;;;3.17;100.00
60170;BME280;46042;49.444;6.862;2024-02-23T01:51:17;96705.91;;;3.23;100.00
60170;BME280;46042;49.444;6.862;2024-02-23T01:53:44;96705.78;;;3.24;100.00
60170;BME280;46042;49.444;6.862;2024-02-23T01:56:12;96700.50;;;3.26;100.00
60170;BME280;46042;49.444;6.862;2024-02-23T01:58:46;96701.22;;;3.28;100.00
60170;BME280;46042;49.444;6.862;2024-02-23T02:01:13;96714.75;;;3.33;100.00
60170;BME280;46042;49.444;6.862;2024-02-23T02:03:39;96716.63;;;3.31;100.00
60170;BME280;46042;49.444;6.862;2024-02-23T02:06:06;96711.63;;;3.28;100.00
60170;BME280;46042;49.444;6.862;2024-02-23T02:08:34;96712.25;;;3.32;100.00
60170;BME280;46042;49.444;6.862;2024-02-23T02:11:02;96699.63;;;3.12;100.00
60170;BME280;46042;49.444;6.862;2024-02-23T02:13:29;96714.72;;;3.07;100.00
60170;BME280;46042;49.444;6.862;2024-02-23T02:16:08;96704.09;;;2.97;100.00
60170;BME280;46042;49.444;6.862;2024-02-23T02:18:36;96712.34;;;3.04;100.00
60170;BME280;46042;49.444;6.862;2024-02-23T02:21:04;96706.28;;;3.04;100.00
60170;BME280;46042;49.444;6.862;2024-02-23T02:23:30;96714.81;;;2.93;100.00
60170;BME280;46042;49.444;6.862;2024-02-23T02:25:58;96716.69;;;3.04;100.00
60170;BME280;46042;49.444;6.862;2024-02-23T02:28:25;96711.19;;;3.08;100.00
60170;BME280;46042;49.444;6.862;2024-02-23T02:30:54;96713.16;;;3.05;100.00
60170;BME280;46042;49.444;6.862;2024-02-23T02:33:31;96708.91;;;3.04;100.00
60170;BME280;46042;49.444;6.862;2024-02-23T02:36:01;96703.09;;;3.00;100.00
60170;BME280;46042;49.444;6.862;2024-02-23T02:38:33;96713.06;;;3.06;100.00
60170;BME280;46042;49.444;6.862;2024-02-23T02:41:00;96711.50;;;3.04;100.00
60170;BME280;46042;49.444;6.862;2024-02-23T02:43:27;96709.09;;;3.01;100.00
60170;BME280;46042;49.444;6.862;2024-02-23T02:45:57;96715.66;;;3.06;100.00
60170;BME280;46042;49.444;6.862;2024-02-23T02:48:27;96711.28;;;3.07;100.00
60170;BME280;46042;49.444;6.862;2024-02-23T02:51:03;96706.84;;;3.09;100.00
60170;BME280;46042;49.444;6.862;2024-02-23T02:53:36;96703.81;;;3.02;100.00
60170;BME280;46042;49.444;6.862;2024-02-23T02:56:15;96702.75;;;3.05;100.00
60170;BME280;46042;49.444;6.862;2024-02-23T02:59:03;96708.59;;;2.95;100.00
60170;BME280;46042;49.444;6.862;2024-02-23T03:01:30;96701.16;;;2.89;100.00
60170;BME280;46042;49.444;6.862;2024-02-23T03:03:57;96697.84;;;2.87;100.00
60170;BME280;46042;49.444;6.862;2024-02-23T03:06:24;96687.72;;;2.82;100.00
60170;BME280;46042;49.444;6.862;2024-02-23T03:08:51;96702.31;;;2.85;100.00
60170;BME280;46042;49.444;6.862;2024-02-23T03:11:20;96689.72;;;2.79;100.00
60170;BME280;46042;49.444;6.862;2024-02-23T03:13:50;96683.69;;;2.78;100.00
60170;BME280;46042;49.444;6.862;2024-02-23T03:16:17;96687.94;;;2.79;100.00
60170;BME280;46042;49.444;6.862;2024-02-23T03:18:45;96680.66;;;2.72;100.00
60170;BME280;46042;49.444;6.862;2024-02-23T03:21:12;96682.50;;;2.69;100.00
60170;BME280;46042;49.444;6.862;2024-02-23T03:23:41;96678.59;;;2.77;100.00
60170;BME280;46042;49.444;6.862;2024-02-23T03:26:08;96685.47;;;2.78;100.00
60170;BME280;46042;49.444;6.862;2024-02-23T03:28:35;96686.69;;;2.72;100.00
60170;BME280;46042;49.444;6.862;2024-02-23T03:31:04;96702.28;;;2.72;100.00
60170;BME280;46042;49.444;6.862;2024-02-23T03:33:30;96697.78;;;2.61;100.00
60170;BME280;46042;49.444;6.862;2024-02-23T03:36:00;96696.66;;;2.65;100.00
60170;BME280;46042;49.444;6.862;2024-02-23T03:38:27;96704.97;;;2.70;100.00
60170;BME280;46042;49.444;6.862;2024-02-23T03:40:58;96702.06;;;2.62;100.00
60170;BME280;46042;49.444;6.862;2024-02-23T03:43:25;96712.97;;;2.67;100.00
60170;BME280;46042;49.444;6.862;2024-02-23T03:45:52;96712.91;;;2.69;100.00
60170;BME280;46042;49.444;6.862;2024-02-23T03:48:19;96709.25;;;2.72;100.00
60170;BME280;46042;49.444;6.862;2024-02-23T03:50:46;96705.47;;;2.63;100.00
60170;BME280;46042;49.444;6.862;2024-02-23T03:53:15;96712.25;;;2.65;100.00
60170;BME280;46042;49.444;6.862;2024-02-23T03:55:43;96716.00;;;2.61;100.00
60170;BME280;46042;49.444;6.862;2024-02-23T03:58:09;96715.16;;;2.61;100.00
60170;BME280;46042;49.444;6.862;2024-02-23T04:00:36;96719.31;;;2.63;100.00
60170;BME280;46042;49.444;6.862;2024-02-23T04:03:03;96713.59;;;2.58;100.00
60170;BME280;46042;49.444;6.862;2024-02-23T04:05:30;96715.34;;;2.58;100.00
60170;BME280;46042;49.444;6.862;2024-02-23T04:07:57;96707.84;;;2.53;100.00
60170;BME280;46042;49.444;6.862;2024-02-23T04:10:24;96705.16;;;2.54;100.00
60170;BME280;46042;49.444;6.862;2024-02-23T04:12:51;96708.88;;;2.50;100.00
60170;BME280;46042;49.444;6.862;2024-02-23T04:15:17;96706.72;;;2.57;100.00
60170;BME280;46042;49.444;6.862;2024-02-23T04:17:45;96707.84;;;2.53;100.00
60170;BME280;46042;49.444;6.862;2024-02-23T04:20:12;96711.22;;;2.68;100.00
60170;BME280;46042;49.444;6.862;2024-02-23T04:22:40;96707.19;;;2.77;100.00
60170;BME280;46042;49.444;6.862;2024-02-23T04:25:07;96707.19;;;2.77;100.00
60170;BME280;46042;49.444;6.862;2024-02-23T04:27:34;96713.09;;;2.66;100.00
60170;BME280;46042;49.444;6.862;2024-02-23T04:30:01;96707.03;;;2.52;100.00
60170;BME280;46042;49.444;6.862;2024-02-23T04:32:28;96701.81;;;2.52;100.00
60170;BME280;46042;49.444;6.862;2024-02-23T04:34:58;96707.34;;;2.61;100.00
60170;BME280;46042;49.444;6.862;2024-02-23T04:37:25;96702.34;;;2.58;100.00
60170;BME280;46042;49.444;6.862;2024-02-23T04:39:51;96704.88;;;2.59;100.00
60170;BME280;46042;49.444;6.862;2024-02-23T04:42:18;96706.16;;;2.52;100.00
60170;BME280;46042;49.444;6.862;2024-02-23T04:44:45;96702.81;;;2.37;100.00
60170;BME280;46042;49.444;6.862;2024-02-23T04:47:12;96703.44;;;2.40;100.00
60170;BME280;46042;49.444;6.862;2024-02-23T04:49:40;96708.53;;;2.42;100.00
60170;BME280;46042;49.444;6.862;2024-02-23T04:52:10;96705.41;;;2.37;100.00
60170;BME280;46042;49.444;6.862;2024-02-23T04:54:36;96706.13;;;2.39;100.00
60170;BME280;46042;49.444;6.862;2024-02-23T04:57:03;96707.16;;;2.36;100.00
60170;BME280;46042;49.444;6.862;2024-02-23T04:59:31;96707.06;;;2.38;100.00
60170;BME280;46042;49.444;6.862;2024-02-23T05:01:59;96711.91;;;2.30;100.00
60170;BME280;46042;49.444;6.862;2024-02-23T05:04:25;96702.38;;;2.30;100.00
60170;BME280;46042;49.444;6.862;2024-02-23T05:06:53;96707.84;;;2.25;100.00
60170;BME280;46042;49.444;6.862;2024-02-23T05:09:20;96701.63;;;2.28;100.00
60170;BME280;46042;49.444;6.862;2024-02-23T05:11:50;96697.16;;;2.30;100.00
60170;BME280;46042;49.444;6.862;2024-02-23T05:14:17;96697.38;;;2.27;100.00
60170;BME280;46042;49.444;6.862;2024-02-23T05:16:44;96700.97;;;2.24;100.00
60170;BME280;46042;49.444;6.862;2024-02-23T05:19:10;96692.16;;;2.27;100.00
60170;BME280;46042;49.444;6.862;2024-02-23T05:21:37;96686.25;;;2.25;100.00
60170;BME280;46042;49.444;6.862;2024-02-23T05:24:04;96676.94;;;2.21;100.00
60170;BME280;46042;49.444;6.862;2024-02-23T05:26:32;96683.19;;;2.18;100.00
60170;BME280;46042;49.444;6.862;2024-02-23T05:28:59;96675.50;;;2.17;100.00
60170;BME280;46042;49.444;6.862;2024-02-23T05:31:44;96671.44;;;2.12;100.00
60170;BME280;46042;49.444;6.862;2024-02-23T05:34:14;96678.56;;;2.09;100.00
60170;BME280;46042;49.444;6.862;2024-02-23T05:36:42;96668.47;;;2.04;100.00
60170;BME280;46042;49.444;6.862;2024-02-23T05:39:09;96670.69;;;2.10;100.00
60170;BME280;46042;49.444;6.862;2024-02-23T05:41:36;96664.38;;;2.15;100.00
60170;BME280;46042;49.444;6.862;2024-02-23T05:44:06;96655.31;;;2.07;100.00
60170;BME280;46042;49.444;6.862;2024-02-23T05:46:34;96656.25;;;2.06;100.00
60170;BME280;46042;49.444;6.862;2024-02-23T05:49:02;96659.00;;;2.03;100.00
60170;BME280;46042;49.444;6.862;2024-02-23T05:51:33;96657.34;;;2.02;100.00
60170;BME280;46042;49.444;6.862;2024-02-23T05:54:01;96663.38;;;2.03;100.00
60170;BME280;46042;49.444;6.862;2024-02-23T05:56:28;96651.94;;;2.05;100.00
60170;BME280;46042;49.444;6.862;2024-02-23T05:58:55;96653.94;;;2.02;100.00
60170;BME280;46042;49.444;6.862;2024-02-23T06:01:22;96655.34;;;1.93;100.00
60170;BME280;46042;49.444;6.862;2024-02-23T06:03:49;96647.56;;;1.93;100.00
60170;BME280;46042;49.444;6.862;2024-02-23T06:06:15;96657.81;;;1.94;100.00
60170;BME280;46042;49.444;6.862;2024-02-23T06:08:43;96655.34;;;1.93;100.00
60170;BME280;46042;49.444;6.862;2024-02-23T06:11:12;96656.28;;;1.92;100.00
60170;BME280;46042;49.444;6.862;2024-02-23T06:13:39;96660.44;;;1.94;100.00
60170;BME280;46042;49.444;6.862;2024-02-23T06:16:10;96653.97;;;1.87;100.00
60170;BME280;46042;49.444;6.862;2024-02-23T06:18:38;96649.97;;;1.81;100.00
60170;BME280;46042;49.444;6.862;2024-02-23T06:21:14;96647.56;;;1.93;100.00
60170;BME280;46042;49.444;6.862;2024-02-23T06:23:42;96650.97;;;1.93;100.00
60170;BME280;46042;49.444;6.862;2024-02-23T06:26:10;96651.81;;;1.94;100.00
60170;BME280;46042;49.444;6.862;2024-02-23T06:28:38;96648.00;;;1.99;100.00
60170;BME280;46042;49.444;6.862;2024-02-23T06:31:09;96653.00;;;2.03;100.00
60170;BME280;46042;49.444;6.862;2024-02-23T06:33:39;96655.84;;;2.12;100.00
60170;BME280;46042;49.444;6.862;2024-02-23T06:36:09;96645.09;;;2.04;100.00
60170;BME280;46042;49.444;6.862;2024-02-23T06:38:36;96650.25;;;2.19;100.00
60170;BME280;46042;49.444;6.862;2024-02-23T06:41:03;96655.34;;;2.20;100.00
60170;BME280;46042;49.444;6.862;2024-02-23T06:43:30;96653.56;;;2.21;100.00
60170;BME280;46042;49.444;6.862;2024-02-23T06:45:56;96647.34;;;2.23;100.00
60170;BME280;46042;49.444;6.862;2024-02-23T06:48:23;96652.91;;;2.32;100.00
60170;BME280;46042;49.444;6.862;2024-02-23T06:50:56;96653.19;;;2.27;100.00
60170;BME280;46042;49.444;6.862;2024-02-23T06:53:24;96649.47;;;2.31;100.00
60170;BME280;46042;49.444;6.862;2024-02-23T06:55:51;96648.69;;;2.44;100.00
60170;BME280;46042;49.444;6.862;2024-02-23T06:58:18;96648.69;;;2.44;100.00
60170;BME280;46042;49.444;6.862;2024-02-23T07:00:45;96660.25;;;2.52;100.00
60170;BME280;46042;49.444;6.862;2024-02-23T07:03:13;96662.28;;;2.47;100.00
60170;BME280;46042;49.444;6.862;2024-02-23T07:05:41;96666.56;;;2.48;100.00
60170;BME280;46042;49.444;6.862;2024-02-23T07:08:09;96671.13;;;2.45;100.00
60170;BME280;46042;49.444;6.862;2024-02-23T07:10:36;96661.47;;;2.47;100.00
60170;BME280;46042;49.444;6.862;2024-02-23T07:13:03;96666.47;;;2.50;100.00
60170;BME280;46042;49.444;6.862;2024-02-23T07:15:33;96667.41;;;2.49;100.00
60170;BME280;46042;49.444;6.862;2024-02-23T07:18:00;96670.22;;;2.59;100.00
60170;BME280;46042;49.444;6.862;2024-02-23T07:20:27;96665.75;;;2.61;100.00
60170;BME280;46042;49.444;6.862;2024-02-23T07:22:54;96672.22;;;2.68;100.00
60170;BME280;46042;49.444;6.862;2024-02-23T07:25:21;96677.53;;;2.66;100.00
60170;BME280;46042;49.444;6.862;2024-02-23T07:27:48;96680.22;;;2.65;100.00
60170;BME280;46042;49.444;6.862;2024-02-23T07:30:25;96678.16;;;2.70;100.00
60170;BME280;46042;49.444;6.862;2024-02-23T07:32:55;96683.25;;;2.72;100.00
60170;BME280;46042;49.444;6.862;2024-02-23T07:35:25;96697.72;;;2.76;100.00
60170;BME280;46042;49.444;6.862;2024-02-23T07:37:52;96695.75;;;2.79;100.00
60170;BME280;46042;49.444;6.862;2024-02-23T07:40:19;96701.66;;;2.81;100.00
60170;BME280;46042;49.444;6.862;2024-02-23T07:42:48;96695.81;;;2.65;100.00
60170;BME280;46042;49.444;6.862;2024-02-23T07:45:15;96698.03;;;2.71;100.00
60170;BME280;46042;49.444;6.862;2024-02-23T07:47:42;96693.88;;;2.81;100.00
60170;BME280;46042;49.444;6.862;2024-02-23T07:50:10;96688.56;;;2.83;100.00
60170;BME280;46042;49.444;6.862;2024-02-23T07:52:39;96698.03;;;2.71;100.00
60170;BME280;46042;49.444;6.862;2024-02-23T07:55:06;96703.31;;;2.69;100.00
60170;BME280;46042;49.444;6.862;2024-02-23T07:57:33;96695.31;;;2.73;100.00
60170;BME280;46042;49.444;6.862;2024-02-23T08:00:01;96695.63;;;2.68;100.00
60170;BME280;46042;49.444;6.862;2024-02-23T08:02:32;96694.00;;;2.80;100.00
60170;BME280;46042;49.444;6.862;2024-02-23T08:04:59;96689.81;;;2.90;100.00
60170;BME280;46042;49.444;6.862;2024-02-23T08:07:27;96687.78;;;2.95;100.00
60170;BME280;46042;49.444;6.862;2024-02-23T08:09:57;96714.28;;;2.88;100.00
60170;BME280;46042;49.444;6.862;2024-02-23T08:12:25;96710.34;;;2.95;100.00
60170;BME280;46042;49.444;6.862;2024-02-23T08:14:53;96713.56;;;2.98;100.00
60170;BME280;46042;49.444;6.862;2024-02-23T08:17:20;96699.53;;;3.01;100.00
60170;BME280;46042;49.444;6.862;2024-02-23T08:19:51;96699.72;;;2.98;100.00
60170;BME280;46042;49.444;6.862;2024-02-23T08:22:18;96714.41;;;2.99;100.00
60170;BME280;46042;49.444;6.862;2024-02-23T08:24:45;96710.25;;;2.96;100.00
60170;BME280;46042;49.444;6.862;2024-02-23T08:27:12;96716.69;;;3.04;100.00
60170;BME280;46042;49.444;6.862;2024-02-23T08:29:39;96718.06;;;3.09;100.00
60170;BME280;46042;49.444;6.862;2024-02-23T08:32:06;96720.78;;;3.21;100.00
60170;BME280;46042;49.444;6.862;2024-02-23T08:34:34;96709.31;;;3.23;100.00
60170;BME280;46042;49.444;6.862;2024-02-23T08:37:01;96711.00;;;3.24;100.00
60170;BME280;46042;49.444;6.862;2024-02-23T08:39:30;96717.13;;;3.23;100.00
60170;BME280;46042;49.444;6.862;2024-02-23T08:41:57;96722.66;;;3.19;100.00
60170;BME280;46042;49.444;6.862;2024-02-23T08:44:24;96719.31;;;3.17;100.00
60170;BME280;46042;49.444;6.862;2024-02-23T08:46:50;96732.00;;;3.21;100.00
60170;BME280;46042;49.444;6.862;2024-02-23T08:49:17;96730.91;;;3.25;100.00
60170;BME280;46042;49.444;6.862;2024-02-23T08:51:44;96729.97;;;3.39;100.00
60170;BME280;46042;49.444;6.862;2024-02-23T08:54:11;96724.13;;;3.36;100.00
60170;BME280;46042;49.444;6.862;2024-02-23T08:56:38;96734.31;;;3.39;100.00
60170;BME280;46042;49.444;6.862;2024-02-23T08:59:06;96736.84;;;3.40;100.00
60170;BME280;46042;49.444;6.862;2024-02-23T09:01:33;96731.09;;;3.35;100.00
60170;BME280;46042;49.444;6.862;2024-02-23T09:04:00;96736.91;;;3.39;100.00
60170;BME280;46042;49.444;6.862;2024-02-23T09:06:27;96724.84;;;3.38;100.00
60170;BME280;46042;49.444;6.862;2024-02-23T09:08:54;96736.41;;;3.34;100.00
60170;BME280;46042;49.444;6.862;2024-02-23T09:11:24;96736.41;;;3.34;100.00
60170;BME280;46042;49.444;6.862;2024-02-23T09:13:53;96740.75;;;3.33;100.00
60170;BME280;46042;49.444;6.862;2024-02-23T09:16:20;96739.84;;;3.34;100.00
60170;BME280;46042;49.444;6.862;2024-02-23T09:18:49;96738.59;;;3.40;100.00
60170;BME280;46042;49.444;6.862;2024-02-23T09:21:16;96734.44;;;3.50;100.00
60170;BME280;46042;49.444;6.862;2024-02-23T09:23:46;96737.75;;;3.65;100.00
60170;BME280;46042;49.444;6.862;2024-02-23T09:26:13;96739.00;;;3.73;100.00
60170;BME280;46042;49.444;6.862;2024-02-23T09:28:40;96742.97;;;3.78;100.00
60170;BME280;46042;49.444;6.862;2024-02-23T09:31:08;96740.44;;;3.90;100.00
60170;BME280;46042;49.444;6.862;2024-02-23T09:33:35;96727.59;;;3.99;100.00
60170;BME280;46042;49.444;6.862;2024-02-23T09:36:02;96727.28;;;4.04;100.00
60170;BME280;46042;49.444;6.862;2024-02-23T09:38:29;96725.94;;;4.11;100.00
60170;BME280;46042;49.444;6.862;2024-02-23T09:40:58;96725.16;;;4.22;100.00
60170;BME280;46042;49.444;6.862;2024-02-23T09:43:30;96723.50;;;4.21;100.00
60170;BME280;46042;49.444;6.862;2024-02-23T09:46:02;96723.91;;;4.15;100.00
60170;BME280;46042;49.444;6.862;2024-02-23T09:48:29;96721.09;;;4.18;100.00
60170;BME280;46042;49.444;6.862;2024-02-23T09:51:00;96722.66;;;4.21;100.00
60170;BME280;46042;49.444;6.862;2024-02-23T09:53:27;96715.06;;;4.18;100.00
60170;BME280;46042;49.444;6.862;2024-02-23T09:55:55;96712.22;;;4.21;100.00
60170;BME280;46042;49.444;6.862;2024-02-23T09:58:23;96725.47;;;4.18;100.00
60170;BME280;46042;49.444;6.862;2024-02-23T10:00:51;96723.59;;;4.20;100.00
60170;BME280;46042;49.444;6.862;2024-02-23T10:03:19;96719.81;;;4.24;100.00
60170;BME280;46042;49.444;6.862;2024-02-23T10:05:52;96718.38;;;4.20;100.00
60170;BME280;46042;49.444;6.862;2024-02-23T10:08:19;96714.38;;;4.27;100.00
60170;BME280;46042;49.444;6.862;2024-02-23T10:10:46;96717.38;;;4.34;100.00
60170;BME280;46042;49.444;6.862;2024-02-23T10:13:18;96716.56;;;4.33;100.00
60170;BME280;46042;49.444;6.862;2024-02-23T10:15:45;96720.16;;;4.44;100.00
60170;BME280;46042;49.444;6.862;2024-02-23T10:21:49;96716.03;;;4.65;100.00
60170;BME280;46042;49.444;6.862;2024-02-23T10:24:16;96715.91;;;4.67;100.00
60170;BME280;46042;49.444;6.862;2024-02-23T10:26:44;96714.44;;;4.87;100.00
60170;BME280;46042;49.444;6.862;2024-02-23T10:29:11;96718.47;;;5.27;100.00
60170;BME280;46042;49.444;6.862;2024-02-23T10:31:42;96713.75;;;5.55;100.00
60170;BME280;46042;49.444;6.862;2024-02-23T10:34:19;96700.09;;;5.97;99.75
60170;BME280;46042;49.444;6.862;2024-02-23T10:36:49;96707.31;;;6.72;100.00
60170;BME280;46042;49.444;6.862;2024-02-23T10:39:18;96717.09;;;6.91;88.70
60170;BME280;46042;49.444;6.862;2024-02-23T10:41:57;96711.53;;;7.38;94.07
60170;BME280;46042;49.444;6.862;2024-02-23T10:44:29;96719.75;;;7.12;86.71
60170;BME280;46042;49.444;6.862;2024-02-23T10:46:58;96719.41;;;7.05;87.48
60170;BME280;46042;49.444;6.862;2024-02-23T10:49:28;96724.69;;;6.73;84.56
60170;BME280;46042;49.444;6.862;2024-02-23T10:51:56;96726.94;;;6.77;88.05
60170;BME280;46042;49.444;6.862;2024-02-23T10:54:23;96724.72;;;6.50;87.31
60170;BME280;46042;49.444;6.862;2024-02-23T10:56:50;96723.13;;;6.26;91.42
60170;BME280;46042;49.444;6.862;2024-02-23T10:59:19;96720.41;;;6.28;88.64
60170;BME280;46042;49.444;6.862;2024-02-23T11:01:51;96716.25;;;6.25;89.46
60170;BME280;46042;49.444;6.862;2024-02-23T11:04:21;96710.06;;;6.26;92.93
60170;BME280;46042;49.444;6.862;2024-02-23T11:06:56;96714.34;;;6.27;89.37
60170;BME280;46042;49.444;6.862;2024-02-23T11:09:26;96702.56;;;6.33;94.26
60170;BME280;46042;49.444;6.862;2024-02-23T11:11:57;96704.81;;;6.37;92.94
60170;BME280;46042;49.444;6.862;2024-02-23T11:14:37;96703.53;;;6.32;91.58
60170;BME280;46042;49.444;6.862;2024-02-23T11:17:05;96695.56;;;6.22;86.66
60170;BME280;46042;49.444;6.862;2024-02-23T11:19:37;96689.91;;;6.49;90.00
60170;BME280;46042;49.444;6.862;2024-02-23T11:22:05;96691.56;;;6.50;87.09
60170;BME280;46042;49.444;6.862;2024-02-23T11:24:49;96699.69;;;6.36;85.17
60170;BME280;46042;49.444;6.862;2024-02-23T11:27:23;96681.72;;;6.43;89.36
60170;BME280;46042;49.444;6.862;2024-02-23T11:30:05;96687.03;;;6.64;87.53
60170;BME280;46042;49.444;6.862;2024-02-23T11:32:40;96679.50;;;6.71;89.68
60170;BME280;46042;49.444;6.862;2024-02-23T11:35:11;96678.47;;;6.62;83.53
60170;BME280;46042;49.444;6.862;2024-02-23T11:37:57;96666.25;;;7.36;85.17
60170;BME280;46042;49.444;6.862;2024-02-23T11:40:32;62137.28;;;-147.77;100.00
60170;BME280;46042;49.444;6.862;2024-02-23T11:42:59;96664.97;;;8.73;78.10
60170;BME280;46042;49.444;6.862;2024-02-23T11:45:30;62137.28;;;-147.77;100.00
60170;BME280;46042;49.444;6.862;2024-02-23T11:47:58;96664.97;;;8.73;78.10
60170;BME280;46042;49.444;6.862;2024-02-23T11:50:27;96661.50;;;9.59;72.84
60170;BME280;46042;49.444;6.862;2024-02-23T11:52:54;96654.19;;;9.05;78.20
60170;BME280;46042;49.444;6.862;2024-02-23T11:55:21;96660.84;;;8.60;74.92
60170;BME280;46042;49.444;6.862;2024-02-23T11:57:53;96652.75;;;8.03;74.25
60170;BME280;46042;49.444;6.862;2024-02-23T12:00:33;96658.63;;;7.85;74.42
60170;BME280;46042;49.444;6.862;2024-02-23T12:03:02;96654.69;;;8.10;78.53
60170;BME280;46042;49.444;6.862;2024-02-23T12:05:31;96662.09;;;8.56;79.14
60170;BME280;46042;49.444;6.862;2024-02-23T12:07:59;96648.09;;;8.26;75.65
60170;BME280;46042;49.444;6.862;2024-02-23T12:10:26;96652.72;;;7.93;75.39
60170;BME280;46042;49.444;6.862;2024-02-23T12:12:54;96648.47;;;7.61;76.97
60170;BME280;46042;49.444;6.862;2024-02-23T12:15:22;96647.72;;;7.49;74.33
60170;BME280;46042;49.444;6.862;2024-02-23T12:17:49;96646.41;;;7.33;77.53
60170;BME280;46042;49.444;6.862;2024-02-23T12:20:17;96644.31;;;7.27;79.23
60170;BME280;46042;49.444;6.862;2024-02-23T12:22:45;96646.44;;;7.12;80.60
60170;BME280;46042;49.444;6.862;2024-02-23T12:25:12;96645.31;;;7.05;79.79
60170;BME280;46042;49.444;6.862;2024-02-23T12:27:43;96641.72;;;6.85;81.12
60170;BME280;46042;49.444;6.862;2024-02-23T12:30:16;96636.91;;;7.63;84.49
60170;BME280;46042;49.444;6.862;2024-02-23T12:32:44;96632.28;;;8.57;80.14
60170;BME280;46042;49.444;6.862;2024-02-23T12:35:12;96637.03;;;9.11;73.32
60170;BME280;46042;49.444;6.862;2024-02-23T12:37:40;96618.28;;;8.47;73.08
60170;BME280;46042;49.444;6.862;2024-02-23T12:40:11;96623.94;;;8.42;77.88
60170;BME280;46042;49.444;6.862;2024-02-23T12:42:39;96625.84;;;8.10;77.04
60170;BME280;46042;49.444;6.862;2024-02-23T12:45:06;96626.66;;;8.11;78.07
60170;BME280;46042;49.444;6.862;2024-02-23T12:47:33;96621.19;;;8.24;80.50
60170;BME280;46042;49.444;6.862;2024-02-23T12:50:01;96630.09;;;7.92;73.91
60170;BME280;46042;49.444;6.862;2024-02-23T12:52:29;96616.59;;;8.16;77.64
60170;BME280;46042;49.444;6.862;2024-02-23T12:54:56;96626.41;;;8.24;76.88
60170;BME280;46042;49.444;6.862;2024-02-23T12:57:23;96624.50;;;8.85;77.48
60170;BME280;46042;49.444;6.862;2024-02-23T12:59:53;96630.41;;;8.97;73.35
60170;BME280;46042;49.444;6.862;2024-02-23T13:02:20;96615.66;;;8.47;73.26
60170;BME280;46042;49.444;6.862;2024-02-23T13:04:48;96610.84;;;8.52;69.38
60170;BME280;46042;49.444;6.862;2024-02-23T13:07:16;96614.97;;;8.45;68.75
60170;BME280;46042;49.444;6.862;2024-02-23T13:09:44;96606.69;;;8.79;67.92
60170;BME280;46042;49.444;6.862;2024-02-23T13:12:11;96597.69;;;9.67;72.09
60170;BME280;46042;49.444;6.862;2024-02-23T13:14:38;96598.16;;;9.24;69.10